sensor_id;sensor_type;location;lat;lon;timestamp;temperature;humidity
39931;DHT22;26635;-35.248;149.138;2023-12-20T00:02:22;15.40;99.10
39931;DHT22;26635;-35.248;149.138;2023-12-20T00:04:54;15.40;99.10
39931;DHT22;26635;-35.248;149.138;2023-12-20T00:07:27;15.40;99.90
39931;DHT22;26635;-35.248;149.138;2023-12-20T00:09:58;15.50;99.60
39931;DHT22;26635;-35.248;149.138;2023-12-20T00:12:30;15.50;99.90
39931;DHT22;26635;-35.248;149.138;2023-12-20T00:15:01;15.60;99.90
39931;DHT22;26635;-35.248;149.138;2023-12-20T00:17:31;15.60;99.90
39931;DHT22;26635;-35.248;149.138;2023-12-20T00:20:01;15.60;99.90
39931;DHT22;26635;-35.248;149.138;2023-12-20T00:22:32;15.60;99.80
39931;DHT22;26635;-35.248;149.138;2023-12-20T00:25:02;15.60;99.50
39931;DHT22;26635;-35.248;149.138;2023-12-20T00:27:32;15.60;98.70
39931;DHT22;26635;-35.248;149.138;2023-12-20T00:30:04;15.60;98.80
39931;DHT22;26635;-35.248;149.138;2023-12-20T00:32:35;15.60;98.10
39931;DHT22;26635;-35.248;149.138;2023-12-20T00:35:06;15.60;98.40
39931;DHT22;26635;-35.248;149.138;2023-12-20T00:37:40;15.60;97.90
39931;DHT22;26635;-35.248;149.138;2023-12-20T00:40:14;15.50;98.40
39931;DHT22;26635;-35.248;149.138;2023-12-20T00:42:45;15.50;98.80
39931;DHT22;26635;-35.248;149.138;2023-12-20T00:45:16;15.60;98.70
39931;DHT22;26635;-35.248;149.138;2023-12-20T00:47:48;15.40;98.50
39931;DHT22;26635;-35.248;149.138;2023-12-20T00:50:19;15.40;98.00
39931;DHT22;26635;-35.248;149.138;2023-12-20T00:52:54;15.30;98.50
39931;DHT22;26635;-35.248;149.138;2023-12-20T00:55:26;15.30;98.60
39931;DHT22;26635;-35.248;149.138;2023-12-20T00:57:56;15.30;98.20
39931;DHT22;26635;-35.248;149.138;2023-12-20T01:00:29;15.30;97.80
39931;DHT22;26635;-35.248;149.138;2023-12-20T01:03:00;15.30;98.70
39931;DHT22;26635;-35.248;149.138;2023-12-20T01:05:30;15.30;98.70
39931;DHT22;26635;-35.248;149.138;2023-12-20T01:08:00;15.40;98.70
39931;DHT22;26635;-35.248;149.138;2023-12-20T01:10:32;15.30;97.90
39931;DHT22;26635;-35.248;149.138;2023-12-20T01:13:03;15.40;98.70
39931;DHT22;26635;-35.248;149.138;2023-12-20T01:15:34;15.40;97.70
39931;DHT22;26635;-35.248;149.138;2023-12-20T01:18:05;15.40;98.50
39931;DHT22;26635;-35.248;149.138;2023-12-20T01:20:35;15.40;97.60
39931;DHT22;26635;-35.248;149.138;2023-12-20T01:23:06;15.40;98.00
39931;DHT22;26635;-35.248;149.138;2023-12-20T01:25:36;15.40;98.00
39931;DHT22;26635;-35.248;149.138;2023-12-20T01:28:06;15.50;97.00
39931;DHT22;26635;-35.248;149.138;2023-12-20T01:30:37;15.40;95.40
39931;DHT22;26635;-35.248;149.138;2023-12-20T01:33:08;15.30;96.20
39931;DHT22;26635;-35.248;149.138;2023-12-20T01:35:38;15.30;96.10
39931;DHT22;26635;-35.248;149.138;2023-12-20T01:38:10;15.40;96.40
39931;DHT22;26635;-35.248;149.138;2023-12-20T01:40:40;15.40;96.70
39931;DHT22;26635;-35.248;149.138;2023-12-20T01:43:12;15.40;96.50
39931;DHT22;26635;-35.248;149.138;2023-12-20T01:45:45;15.40;97.60
39931;DHT22;26635;-35.248;149.138;2023-12-20T01:48:17;15.40;96.30
39931;DHT22;26635;-35.248;149.138;2023-12-20T01:51:08;15.40;97.50
39931;DHT22;26635;-35.248;149.138;2023-12-20T01:53:40;15.40;96.60
39931;DHT22;26635;-35.248;149.138;2023-12-20T01:56:11;15.40;96.00
39931;DHT22;26635;-35.248;149.138;2023-12-20T01:58:47;15.40;96.50
39931;DHT22;26635;-35.248;149.138;2023-12-20T02:01:18;15.40;96.10
39931;DHT22;26635;-35.248;149.138;2023-12-20T02:03:52;15.40;97.20
39931;DHT22;26635;-35.248;149.138;2023-12-20T02:06:23;15.40;96.70
39931;DHT22;26635;-35.248;149.138;2023-12-20T02:08:55;15.40;96.00
39931;DHT22;26635;-35.248;149.138;2023-12-20T02:11:26;15.40;97.30
39931;DHT22;26635;-35.248;149.138;2023-12-20T02:13:57;15.50;96.30
39931;DHT22;26635;-35.248;149.138;2023-12-20T02:16:27;15.50;97.30
39931;DHT22;26635;-35.248;149.138;2023-12-20T02:18:57;15.60;97.00
39931;DHT22;26635;-35.248;149.138;2023-12-20T02:21:35;15.60;97.60
39931;DHT22;26635;-35.248;149.138;2023-12-20T02:24:05;15.60;96.70
39931;DHT22;26635;-35.248;149.138;2023-12-20T02:26:36;15.60;96.70
39931;DHT22;26635;-35.248;149.138;2023-12-20T02:29:06;15.60;95.90
39931;DHT22;26635;-35.248;149.138;2023-12-20T02:31:36;15.60;96.60
39931;DHT22;26635;-35.248;149.138;2023-12-20T02:34:07;15.60;95.40
39931;DHT22;26635;-35.248;149.138;2023-12-20T02:36:37;15.60;96.30
39931;DHT22;26635;-35.248;149.138;2023-12-20T02:39:09;15.60;94.70
39931;DHT22;26635;-35.248;149.138;2023-12-20T02:41:39;15.50;95.10
39931;DHT22;26635;-35.248;149.138;2023-12-20T02:44:09;15.60;95.50
39931;DHT22;26635;-35.248;149.138;2023-12-20T02:46:40;15.60;97.00
39931;DHT22;26635;-35.248;149.138;2023-12-20T02:49:10;15.60;96.80
39931;DHT22;26635;-35.248;149.138;2023-12-20T02:51:40;15.60;95.70
39931;DHT22;26635;-35.248;149.138;2023-12-20T02:54:11;15.60;96.10
39931;DHT22;26635;-35.248;149.138;2023-12-20T02:56:42;15.60;97.30
39931;DHT22;26635;-35.248;149.138;2023-12-20T02:59:14;15.60;95.90
39931;DHT22;26635;-35.248;149.138;2023-12-20T03:01:45;15.50;95.60
39931;DHT22;26635;-35.248;149.138;2023-12-20T03:04:17;15.50;96.80
39931;DHT22;26635;-35.248;149.138;2023-12-20T03:06:48;15.50;95.80
39931;DHT22;26635;-35.248;149.138;2023-12-20T03:09:19;15.40;95.60
39931;DHT22;26635;-35.248;149.138;2023-12-20T03:11:49;15.40;96.60
39931;DHT22;26635;-35.248;149.138;2023-12-20T03:14:20;15.50;96.40
39931;DHT22;26635;-35.248;149.138;2023-12-20T03:16:50;15.60;96.80
39931;DHT22;26635;-35.248;149.138;2023-12-20T03:19:21;15.60;96.40
39931;DHT22;26635;-35.248;149.138;2023-12-20T03:21:54;15.60;95.20
39931;DHT22;26635;-35.248;149.138;2023-12-20T03:24:25;15.60;94.70
39931;DHT22;26635;-35.248;149.138;2023-12-20T03:26:55;15.60;95.30
39931;DHT22;26635;-35.248;149.138;2023-12-20T03:29:26;15.60;95.90
39931;DHT22;26635;-35.248;149.138;2023-12-20T03:31:57;15.60;95.70
39931;DHT22;26635;-35.248;149.138;2023-12-20T03:34:28;15.60;95.00
39931;DHT22;26635;-35.248;149.138;2023-12-20T03:37:00;15.50;94.20
39931;DHT22;26635;-35.248;149.138;2023-12-20T03:39:30;15.60;94.50
39931;DHT22;26635;-35.248;149.138;2023-12-20T03:42:01;15.60;95.20
39931;DHT22;26635;-35.248;149.138;2023-12-20T03:44:32;15.70;94.40
39931;DHT22;26635;-35.248;149.138;2023-12-20T03:47:02;15.70;93.40
39931;DHT22;26635;-35.248;149.138;2023-12-20T03:49:33;15.70;93.20
39931;DHT22;26635;-35.248;149.138;2023-12-20T03:52:04;15.80;93.70
39931;DHT22;26635;-35.248;149.138;2023-12-20T03:54:36;15.90;93.70
39931;DHT22;26635;-35.248;149.138;2023-12-20T03:57:08;15.80;92.90
39931;DHT22;26635;-35.248;149.138;2023-12-20T03:59:39;15.80;92.10
39931;DHT22;26635;-35.248;149.138;2023-12-20T04:02:10;15.80;92.60
39931;DHT22;26635;-35.248;149.138;2023-12-20T04:04:41;15.80;92.20
39931;DHT22;26635;-35.248;149.138;2023-12-20T04:07:11;15.70;92.20
39931;DHT22;26635;-35.248;149.138;2023-12-20T04:09:42;15.80;93.20
39931;DHT22;26635;-35.248;149.138;2023-12-20T04:12:12;15.80;92.30
39931;DHT22;26635;-35.248;149.138;2023-12-20T04:14:44;15.80;92.60
39931;DHT22;26635;-35.248;149.138;2023-12-20T04:17:16;15.80;92.80
39931;DHT22;26635;-35.248;149.138;2023-12-20T04:19:47;15.70;91.90
39931;DHT22;26635;-35.248;149.138;2023-12-20T04:22:20;15.70;91.40
39931;DHT22;26635;-35.248;149.138;2023-12-20T04:24:51;15.70;91.90
39931;DHT22;26635;-35.248;149.138;2023-12-20T04:27:22;15.70;90.60
39931;DHT22;26635;-35.248;149.138;2023-12-20T04:29:52;15.60;91.70
39931;DHT22;26635;-35.248;149.138;2023-12-20T04:32:23;15.70;89.90
39931;DHT22;26635;-35.248;149.138;2023-12-20T04:34:53;15.70;91.70
39931;DHT22;26635;-35.248;149.138;2023-12-20T04:37:24;15.70;92.90
39931;DHT22;26635;-35.248;149.138;2023-12-20T04:39:55;15.70;92.10
39931;DHT22;26635;-35.248;149.138;2023-12-20T04:42:25;15.80;92.50
39931;DHT22;26635;-35.248;149.138;2023-12-20T04:44:57;15.80;92.70
39931;DHT22;26635;-35.248;149.138;2023-12-20T04:47:28;15.80;90.90
39931;DHT22;26635;-35.248;149.138;2023-12-20T04:49:58;15.80;90.10
39931;DHT22;26635;-35.248;149.138;2023-12-20T04:52:50;15.80;90.20
39931;DHT22;26635;-35.248;149.138;2023-12-20T04:55:21;15.80;89.20
39931;DHT22;26635;-35.248;149.138;2023-12-20T04:57:52;15.80;91.20
39931;DHT22;26635;-35.248;149.138;2023-12-20T05:00:25;15.80;89.40
39931;DHT22;26635;-35.248;149.138;2023-12-20T05:02:56;15.80;90.40
39931;DHT22;26635;-35.248;149.138;2023-12-20T05:05:26;15.70;90.30
39931;DHT22;26635;-35.248;149.138;2023-12-20T05:07:57;15.70;90.20
39931;DHT22;26635;-35.248;149.138;2023-12-20T05:10:27;15.70;91.40
39931;DHT22;26635;-35.248;149.138;2023-12-20T05:12:58;15.80;90.70
39931;DHT22;26635;-35.248;149.138;2023-12-20T05:15:28;15.90;89.90
39931;DHT22;26635;-35.248;149.138;2023-12-20T05:17:59;15.90;90.30
39931;DHT22;26635;-35.248;149.138;2023-12-20T05:20:29;15.90;90.20
39931;DHT22;26635;-35.248;149.138;2023-12-20T05:22:59;16.00;87.70
39931;DHT22;26635;-35.248;149.138;2023-12-20T05:25:30;16.00;86.80
39931;DHT22;26635;-35.248;149.138;2023-12-20T05:28:04;16.00;87.90
39931;DHT22;26635;-35.248;149.138;2023-12-20T05:30:34;16.10;88.90
39931;DHT22;26635;-35.248;149.138;2023-12-20T05:33:04;16.20;88.40
39931;DHT22;26635;-35.248;149.138;2023-12-20T05:35:36;16.10;88.50
39931;DHT22;26635;-35.248;149.138;2023-12-20T05:38:07;16.20;87.10
39931;DHT22;26635;-35.248;149.138;2023-12-20T05:40:38;16.20;89.40
39931;DHT22;26635;-35.248;149.138;2023-12-20T05:43:10;16.30;88.40
39931;DHT22;26635;-35.248;149.138;2023-12-20T05:45:40;16.30;85.10
39931;DHT22;26635;-35.248;149.138;2023-12-20T05:48:12;16.30;86.50
39931;DHT22;26635;-35.248;149.138;2023-12-20T05:50:43;16.30;87.10
39931;DHT22;26635;-35.248;149.138;2023-12-20T05:53:14;16.30;87.80
39931;DHT22;26635;-35.248;149.138;2023-12-20T05:55:45;16.40;87.50
39931;DHT22;26635;-35.248;149.138;2023-12-20T05:58:16;16.40;86.40
39931;DHT22;26635;-35.248;149.138;2023-12-20T06:00:46;16.40;85.10
39931;DHT22;26635;-35.248;149.138;2023-12-20T06:03:18;16.40;84.80
39931;DHT22;26635;-35.248;149.138;2023-12-20T06:05:49;16.40;84.10
39931;DHT22;26635;-35.248;149.138;2023-12-20T06:08:29;16.50;83.60
39931;DHT22;26635;-35.248;149.138;2023-12-20T06:10:59;16.40;85.10
39931;DHT22;26635;-35.248;149.138;2023-12-20T06:13:30;16.50;85.20
39931;DHT22;26635;-35.248;149.138;2023-12-20T06:16:02;16.50;83.20
39931;DHT22;26635;-35.248;149.138;2023-12-20T06:18:34;16.50;84.10
39931;DHT22;26635;-35.248;149.138;2023-12-20T06:21:07;16.60;87.60
39931;DHT22;26635;-35.248;149.138;2023-12-20T06:23:42;16.60;83.50
39931;DHT22;26635;-35.248;149.138;2023-12-20T06:26:12;16.60;82.50
39931;DHT22;26635;-35.248;149.138;2023-12-20T06:28:42;16.60;82.90
39931;DHT22;26635;-35.248;149.138;2023-12-20T06:31:13;16.60;82.80
39931;DHT22;26635;-35.248;149.138;2023-12-20T06:33:43;16.60;86.70
39931;DHT22;26635;-35.248;149.138;2023-12-20T06:36:14;16.60;83.30
39931;DHT22;26635;-35.248;149.138;2023-12-20T06:38:44;16.60;80.90
39931;DHT22;26635;-35.248;149.138;2023-12-20T06:41:16;16.60;83.10
39931;DHT22;26635;-35.248;149.138;2023-12-20T06:43:47;16.60;82.20
39931;DHT22;26635;-35.248;149.138;2023-12-20T06:46:17;16.60;82.40
39931;DHT22;26635;-35.248;149.138;2023-12-20T06:48:48;16.60;81.80
39931;DHT22;26635;-35.248;149.138;2023-12-20T06:51:18;16.60;81.80
39931;DHT22;26635;-35.248;149.138;2023-12-20T06:53:49;16.50;82.30
39931;DHT22;26635;-35.248;149.138;2023-12-20T06:56:20;16.50;82.30
39931;DHT22;26635;-35.248;149.138;2023-12-20T06:58:51;16.50;81.70
39931;DHT22;26635;-35.248;149.138;2023-12-20T07:01:22;16.50;80.80
39931;DHT22;26635;-35.248;149.138;2023-12-20T07:03:53;16.50;82.40
39931;DHT22;26635;-35.248;149.138;2023-12-20T07:06:23;16.50;80.70
39931;DHT22;26635;-35.248;149.138;2023-12-20T07:08:55;16.50;82.00
39931;DHT22;26635;-35.248;149.138;2023-12-20T07:11:26;16.50;79.30
39931;DHT22;26635;-35.248;149.138;2023-12-20T07:13:56;16.60;80.30
39931;DHT22;26635;-35.248;149.138;2023-12-20T07:16:27;16.60;79.60
39931;DHT22;26635;-35.248;149.138;2023-12-20T07:18:57;16.60;79.10
39931;DHT22;26635;-35.248;149.138;2023-12-20T07:21:28;16.60;80.10
39931;DHT22;26635;-35.248;149.138;2023-12-20T07:23:59;16.60;81.80
39931;DHT22;26635;-35.248;149.138;2023-12-20T07:26:30;16.60;81.30
39931;DHT22;26635;-35.248;149.138;2023-12-20T07:29:02;16.70;82.40
39931;DHT22;26635;-35.248;149.138;2023-12-20T07:31:36;16.70;80.00
39931;DHT22;26635;-35.248;149.138;2023-12-20T07:34:08;16.70;82.10
39931;DHT22;26635;-35.248;149.138;2023-12-20T07:36:39;16.70;83.10
39931;DHT22;26635;-35.248;149.138;2023-12-20T07:39:11;16.70;79.80
39931;DHT22;26635;-35.248;149.138;2023-12-20T07:41:41;16.70;79.10
39931;DHT22;26635;-35.248;149.138;2023-12-20T07:44:13;16.70;79.10
39931;DHT22;26635;-35.248;149.138;2023-12-20T07:46:46;16.70;78.90
39931;DHT22;26635;-35.248;149.138;2023-12-20T07:49:19;16.70;79.80
39931;DHT22;26635;-35.248;149.138;2023-12-20T07:51:50;16.60;79.40
39931;DHT22;26635;-35.248;149.138;2023-12-20T07:54:21;16.60;80.00
39931;DHT22;26635;-35.248;149.138;2023-12-20T07:56:51;16.60;81.20
39931;DHT22;26635;-35.248;149.138;2023-12-20T07:59:23;16.60;79.10
39931;DHT22;26635;-35.248;149.138;2023-12-20T08:02:00;16.60;81.00
39931;DHT22;26635;-35.248;149.138;2023-12-20T08:04:31;16.60;80.30
39931;DHT22;26635;-35.248;149.138;2023-12-20T08:07:03;16.50;81.60
39931;DHT22;26635;-35.248;149.138;2023-12-20T08:09:33;16.50;79.40
39931;DHT22;26635;-35.248;149.138;2023-12-20T08:12:06;16.50;81.60
39931;DHT22;26635;-35.248;149.138;2023-12-20T08:14:37;16.40;80.00
39931;DHT22;26635;-35.248;149.138;2023-12-20T08:17:07;16.40;80.60
39931;DHT22;26635;-35.248;149.138;2023-12-20T08:19:37;16.40;79.90
39931;DHT22;26635;-35.248;149.138;2023-12-20T08:22:08;16.40;79.10
39931;DHT22;26635;-35.248;149.138;2023-12-20T08:24:40;16.40;78.20
39931;DHT22;26635;-35.248;149.138;2023-12-20T08:27:10;16.40;80.60
39931;DHT22;26635;-35.248;149.138;2023-12-20T08:29:41;16.40;81.40
39931;DHT22;26635;-35.248;149.138;2023-12-20T08:32:14;16.40;80.40
39931;DHT22;26635;-35.248;149.138;2023-12-20T08:34:44;16.40;80.20
39931;DHT22;26635;-35.248;149.138;2023-12-20T08:37:15;16.40;80.80
39931;DHT22;26635;-35.248;149.138;2023-12-20T08:39:45;16.40;80.00
39931;DHT22;26635;-35.248;149.138;2023-12-20T08:42:15;16.40;81.40
39931;DHT22;26635;-35.248;149.138;2023-12-20T08:44:46;16.40;82.40
39931;DHT22;26635;-35.248;149.138;2023-12-20T08:47:18;16.40;81.90
39931;DHT22;26635;-35.248;149.138;2023-12-20T08:49:49;16.40;83.00
39931;DHT22;26635;-35.248;149.138;2023-12-20T08:52:20;16.30;84.00
39931;DHT22;26635;-35.248;149.138;2023-12-20T08:54:51;16.30;81.30
39931;DHT22;26635;-35.248;149.138;2023-12-20T08:57:24;16.30;82.00
39931;DHT22;26635;-35.248;149.138;2023-12-20T08:59:55;16.30;81.50
39931;DHT22;26635;-35.248;149.138;2023-12-20T09:02:25;16.30;81.80
39931;DHT22;26635;-35.248;149.138;2023-12-20T09:04:57;16.30;82.30
39931;DHT22;26635;-35.248;149.138;2023-12-20T09:07:27;16.30;82.00
39931;DHT22;26635;-35.248;149.138;2023-12-20T09:10:00;16.20;80.30
39931;DHT22;26635;-35.248;149.138;2023-12-20T09:12:30;16.20;80.40
39931;DHT22;26635;-35.248;149.138;2023-12-20T09:15:01;16.20;80.20
39931;DHT22;26635;-35.248;149.138;2023-12-20T09:17:33;16.20;80.30
39931;DHT22;26635;-35.248;149.138;2023-12-20T09:20:05;16.20;79.70
39931;DHT22;26635;-35.248;149.138;2023-12-20T09:22:37;16.20;80.50
39931;DHT22;26635;-35.248;149.138;2023-12-20T09:25:10;16.20;82.60
39931;DHT22;26635;-35.248;149.138;2023-12-20T09:27:41;16.20;79.70
39931;DHT22;26635;-35.248;149.138;2023-12-20T09:30:13;16.20;80.40
39931;DHT22;26635;-35.248;149.138;2023-12-20T09:32:55;16.20;81.30
39931;DHT22;26635;-35.248;149.138;2023-12-20T09:35:26;16.20;81.20
39931;DHT22;26635;-35.248;149.138;2023-12-20T09:38:00;16.20;80.60
39931;DHT22;26635;-35.248;149.138;2023-12-20T09:40:32;16.20;79.90
39931;DHT22;26635;-35.248;149.138;2023-12-20T09:43:24;16.20;81.00
39931;DHT22;26635;-35.248;149.138;2023-12-20T09:45:57;16.20;80.60
39931;DHT22;26635;-35.248;149.138;2023-12-20T09:48:35;16.20;82.70
39931;DHT22;26635;-35.248;149.138;2023-12-20T09:51:08;16.10;80.40
39931;DHT22;26635;-35.248;149.138;2023-12-20T09:53:39;16.20;80.60
39931;DHT22;26635;-35.248;149.138;2023-12-20T09:56:10;16.10;79.40
39931;DHT22;26635;-35.248;149.138;2023-12-20T09:58:41;16.20;78.90
39931;DHT22;26635;-35.248;149.138;2023-12-20T10:01:12;16.10;78.70
39931;DHT22;26635;-35.248;149.138;2023-12-20T10:03:43;16.20;79.50
39931;DHT22;26635;-35.248;149.138;2023-12-20T10:06:14;16.20;79.20
39931;DHT22;26635;-35.248;149.138;2023-12-20T10:08:44;16.10;79.70
39931;DHT22;26635;-35.248;149.138;2023-12-20T10:11:15;16.10;80.30
39931;DHT22;26635;-35.248;149.138;2023-12-20T10:13:48;16.10;80.30
39931;DHT22;26635;-35.248;149.138;2023-12-20T10:16:25;16.10;79.60
39931;DHT22;26635;-35.248;149.138;2023-12-20T10:18:56;16.10;79.20
39931;DHT22;26635;-35.248;149.138;2023-12-20T10:21:27;16.10;80.20
39931;DHT22;26635;-35.248;149.138;2023-12-20T10:24:00;16.10;80.20
39931;DHT22;26635;-35.248;149.138;2023-12-20T10:26:31;16.10;81.60
39931;DHT22;26635;-35.248;149.138;2023-12-20T10:29:03;16.10;80.90
39931;DHT22;26635;-35.248;149.138;2023-12-20T10:31:36;16.00;80.20
39931;DHT22;26635;-35.248;149.138;2023-12-20T10:34:09;16.00;80.60
39931;DHT22;26635;-35.248;149.138;2023-12-20T10:36:40;16.10;81.10
39931;DHT22;26635;-35.248;149.138;2023-12-20T10:39:11;16.00;81.50
39931;DHT22;26635;-35.248;149.138;2023-12-20T10:41:46;16.00;80.90
39931;DHT22;26635;-35.248;149.138;2023-12-20T10:44:18;16.00;80.60
39931;DHT22;26635;-35.248;149.138;2023-12-20T10:46:48;16.00;80.90
39931;DHT22;26635;-35.248;149.138;2023-12-20T10:49:21;15.90;81.40
39931;DHT22;26635;-35.248;149.138;2023-12-20T10:51:55;15.90;80.10
39931;DHT22;26635;-35.248;149.138;2023-12-20T10:54:27;15.90;80.20
39931;DHT22;26635;-35.248;149.138;2023-12-20T10:56:58;15.90;80.70
39931;DHT22;26635;-35.248;149.138;2023-12-20T10:59:30;15.90;79.30
39931;DHT22;26635;-35.248;149.138;2023-12-20T11:02:03;15.90;79.70
39931;DHT22;26635;-35.248;149.138;2023-12-20T11:04:52;15.80;80.20
39931;DHT22;26635;-35.248;149.138;2023-12-20T11:07:59;15.80;80.70
39931;DHT22;26635;-35.248;149.138;2023-12-20T11:11:29;15.80;79.00
39931;DHT22;26635;-35.248;149.138;2023-12-20T11:13:59;15.80;78.70
39931;DHT22;26635;-35.248;149.138;2023-12-20T11:16:33;15.80;78.70
39931;DHT22;26635;-35.248;149.138;2023-12-20T11:19:20;15.80;78.30
39931;DHT22;26635;-35.248;149.138;2023-12-20T11:21:51;15.80;77.90
39931;DHT22;26635;-35.248;149.138;2023-12-20T11:24:23;15.70;77.90
39931;DHT22;26635;-35.248;149.138;2023-12-20T11:26:57;15.70;78.70
39931;DHT22;26635;-35.248;149.138;2023-12-20T11:29:35;15.70;78.80
39931;DHT22;26635;-35.248;149.138;2023-12-20T11:32:36;15.70;79.80
39931;DHT22;26635;-35.248;149.138;2023-12-20T11:37:41;15.60;80.20
39931;DHT22;26635;-35.248;149.138;2023-12-20T11:40:16;15.60;80.40
39931;DHT22;26635;-35.248;149.138;2023-12-20T11:42:50;15.50;80.70
39931;DHT22;26635;-35.248;149.138;2023-12-20T11:45:24;15.50;81.10
39931;DHT22;26635;-35.248;149.138;2023-12-20T11:47:58;15.50;81.90
39931;DHT22;26635;-35.248;149.138;2023-12-20T11:50:29;15.30;81.80
39931;DHT22;26635;-35.248;149.138;2023-12-20T11:53:00;15.30;82.40
39931;DHT22;26635;-35.248;149.138;2023-12-20T11:55:31;15.30;82.90
39931;DHT22;26635;-35.248;149.138;2023-12-20T11:58:01;15.20;83.40
39931;DHT22;26635;-35.248;149.138;2023-12-20T12:00:33;15.10;83.40
39931;DHT22;26635;-35.248;149.138;2023-12-20T12:03:03;15.10;83.40
39931;DHT22;26635;-35.248;149.138;2023-12-20T12:05:34;15.10;85.20
39931;DHT22;26635;-35.248;149.138;2023-12-20T12:08:05;15.10;85.00
39931;DHT22;26635;-35.248;149.138;2023-12-20T12:10:38;15.00;84.90
39931;DHT22;26635;-35.248;149.138;2023-12-20T12:13:08;15.00;84.60
39931;DHT22;26635;-35.248;149.138;2023-12-20T12:15:40;14.90;85.10
39931;DHT22;26635;-35.248;149.138;2023-12-20T12:18:16;14.90;85.80
39931;DHT22;26635;-35.248;149.138;2023-12-20T12:20:47;14.90;86.10
39931;DHT22;26635;-35.248;149.138;2023-12-20T12:23:23;14.90;85.80
39931;DHT22;26635;-35.248;149.138;2023-12-20T12:25:55;14.80;85.80
39931;DHT22;26635;-35.248;149.138;2023-12-20T12:28:29;14.80;86.00
39931;DHT22;26635;-35.248;149.138;2023-12-20T12:31:01;14.90;86.30
39931;DHT22;26635;-35.248;149.138;2023-12-20T12:33:32;14.80;86.60
39931;DHT22;26635;-35.248;149.138;2023-12-20T12:36:05;14.80;86.50
39931;DHT22;26635;-35.248;149.138;2023-12-20T12:38:37;14.80;87.20
39931;DHT22;26635;-35.248;149.138;2023-12-20T12:41:14;14.70;87.10
39931;DHT22;26635;-35.248;149.138;2023-12-20T12:43:45;14.80;87.20
39931;DHT22;26635;-35.248;149.138;2023-12-20T12:46:16;14.70;87.80
39931;DHT22;26635;-35.248;149.138;2023-12-20T12:48:47;14.80;88.70
39931;DHT22;26635;-35.248;149.138;2023-12-20T12:51:18;14.80;87.80
39931;DHT22;26635;-35.248;149.138;2023-12-20T12:53:49;14.80;88.20
39931;DHT22;26635;-35.248;149.138;2023-12-20T12:56:20;14.80;87.50
39931;DHT22;26635;-35.248;149.138;2023-12-20T12:58:51;14.80;87.20
39931;DHT22;26635;-35.248;149.138;2023-12-20T13:01:22;14.80;88.60
39931;DHT22;26635;-35.248;149.138;2023-12-20T13:03:55;14.80;88.10
39931;DHT22;26635;-35.248;149.138;2023-12-20T13:06:26;14.80;89.20
39931;DHT22;26635;-35.248;149.138;2023-12-20T13:08:56;14.70;90.00
39931;DHT22;26635;-35.248;149.138;2023-12-20T13:11:27;14.70;88.50
39931;DHT22;26635;-35.248;149.138;2023-12-20T13:13:58;14.70;89.30
39931;DHT22;26635;-35.248;149.138;2023-12-20T13:16:29;14.70;89.60
39931;DHT22;26635;-35.248;149.138;2023-12-20T13:19:00;14.70;90.20
39931;DHT22;26635;-35.248;149.138;2023-12-20T13:21:30;14.70;89.50
39931;DHT22;26635;-35.248;149.138;2023-12-20T13:24:01;14.70;90.10
39931;DHT22;26635;-35.248;149.138;2023-12-20T13:26:31;14.80;90.00
39931;DHT22;26635;-35.248;149.138;2023-12-20T13:29:03;14.70;90.00
39931;DHT22;26635;-35.248;149.138;2023-12-20T13:31:33;14.70;90.70
39931;DHT22;26635;-35.248;149.138;2023-12-20T13:34:06;14.70;90.60
39931;DHT22;26635;-35.248;149.138;2023-12-20T13:36:37;14.70;90.60
39931;DHT22;26635;-35.248;149.138;2023-12-20T13:39:07;14.70;91.20
39931;DHT22;26635;-35.248;149.138;2023-12-20T13:41:58;14.70;91.00
39931;DHT22;26635;-35.248;149.138;2023-12-20T13:44:32;14.70;90.80
39931;DHT22;26635;-35.248;149.138;2023-12-20T13:47:02;14.80;91.20
39931;DHT22;26635;-35.248;149.138;2023-12-20T13:49:33;14.80;90.60
39931;DHT22;26635;-35.248;149.138;2023-12-20T13:52:05;14.80;91.00
39931;DHT22;26635;-35.248;149.138;2023-12-20T13:54:35;14.80;91.30
39931;DHT22;26635;-35.248;149.138;2023-12-20T13:57:05;14.80;90.70
39931;DHT22;26635;-35.248;149.138;2023-12-20T13:59:52;14.80;90.70
39931;DHT22;26635;-35.248;149.138;2023-12-20T14:02:24;14.80;91.30
39931;DHT22;26635;-35.248;149.138;2023-12-20T14:04:56;14.80;91.20
39931;DHT22;26635;-35.248;149.138;2023-12-20T14:07:26;14.90;91.80
39931;DHT22;26635;-35.248;149.138;2023-12-20T14:09:59;14.90;91.60
39931;DHT22;26635;-35.248;149.138;2023-12-20T14:12:29;14.90;90.90
39931;DHT22;26635;-35.248;149.138;2023-12-20T14:14:59;15.00;90.60
39931;DHT22;26635;-35.248;149.138;2023-12-20T14:17:31;15.00;90.90
39931;DHT22;26635;-35.248;149.138;2023-12-20T14:20:01;15.00;91.80
39931;DHT22;26635;-35.248;149.138;2023-12-20T14:22:33;15.00;91.60
39931;DHT22;26635;-35.248;149.138;2023-12-20T14:25:04;15.00;90.60
39931;DHT22;26635;-35.248;149.138;2023-12-20T14:27:35;15.10;91.00
39931;DHT22;26635;-35.248;149.138;2023-12-20T14:30:06;15.10;90.50
39931;DHT22;26635;-35.248;149.138;2023-12-20T14:32:37;15.00;90.70
39931;DHT22;26635;-35.248;149.138;2023-12-20T14:35:08;15.10;90.60
39931;DHT22;26635;-35.248;149.138;2023-12-20T14:37:38;15.10;91.00
39931;DHT22;26635;-35.248;149.138;2023-12-20T14:40:11;15.10;91.00
39931;DHT22;26635;-35.248;149.138;2023-12-20T14:42:46;15.10;90.70
39931;DHT22;26635;-35.248;149.138;2023-12-20T14:45:17;15.10;90.60
39931;DHT22;26635;-35.248;149.138;2023-12-20T14:48:08;15.10;90.60
39931;DHT22;26635;-35.248;149.138;2023-12-20T14:50:39;15.10;90.30
39931;DHT22;26635;-35.248;149.138;2023-12-20T14:53:17;15.10;91.30
39931;DHT22;26635;-35.248;149.138;2023-12-20T14:55:50;15.10;90.30
39931;DHT22;26635;-35.248;149.138;2023-12-20T14:58:21;15.10;90.60
39931;DHT22;26635;-35.248;149.138;2023-12-20T15:00:52;15.10;90.80
39931;DHT22;26635;-35.248;149.138;2023-12-20T15:03:22;15.10;90.40
39931;DHT22;26635;-35.248;149.138;2023-12-20T15:05:52;15.00;90.10
39931;DHT22;26635;-35.248;149.138;2023-12-20T15:08:26;15.00;90.50
39931;DHT22;26635;-35.248;149.138;2023-12-20T15:10:58;15.00;90.60
39931;DHT22;26635;-35.248;149.138;2023-12-20T15:13:30;15.00;90.90
39931;DHT22;26635;-35.248;149.138;2023-12-20T15:16:03;15.00;91.30
39931;DHT22;26635;-35.248;149.138;2023-12-20T15:18:34;14.90;90.50
39931;DHT22;26635;-35.248;149.138;2023-12-20T15:21:04;15.00;90.90